createdAt,value
2016-12-11T00:00:39.050Z,-1.07
2016-12-11T00:01:39.306Z,-1.1
2016-12-11T00:02:39.264Z,-1.16
2016-12-11T00:03:39.219Z,-1.02
2016-12-11T00:04:38.875Z,-1.01
2016-12-11T00:05:38.831Z,-0.95
2016-12-11T00:06:39.086Z,-0.98
2016-12-11T00:07:39.055Z,-1.01
2016-12-11T00:08:38.706Z,-1.01
2016-12-11T00:09:38.658Z,-1.02
2016-12-11T00:10:38.615Z,-1.07
2016-12-11T00:11:38.877Z,-1.09
2016-12-11T00:12:38.227Z,-1.01
2016-12-11T00:13:38.789Z,-1.1
2016-12-11T00:14:38.444Z,-1.1
2016-12-11T00:15:38.403Z,-1.15
2016-12-11T00:16:38.663Z,-1.09
2016-12-11T00:17:38.313Z,-1.15
2016-12-11T00:18:38.569Z,-0.99
2016-12-11T00:19:38.526Z,-1.05
2016-12-11T00:20:38.196Z,-1.01
2016-12-11T00:21:38.445Z,-1.01
2016-12-11T00:22:38.100Z,-1.05
2016-12-11T00:23:38.359Z,-1.23
2016-12-11T00:24:38.017Z,-1.12
2016-12-11T00:25:38.273Z,-1.15
2016-12-11T00:26:37.927Z,-0.97
2016-12-11T00:27:37.894Z,-1.05
2016-12-11T00:28:38.143Z,-1.04
2016-12-11T00:29:38.102Z,-1.01
2016-12-11T00:30:37.755Z,-1.05
2016-12-11T00:31:37.735Z,-1.09
2016-12-11T00:32:37.974Z,-1.09
2016-12-11T00:33:37.925Z,-1.05
2016-12-11T00:34:37.899Z,-0.99
2016-12-11T00:35:37.845Z,-1.07
2016-12-11T00:36:37.496Z,-1.05
2016-12-11T00:37:37.458Z,-0.98
2016-12-11T00:38:37.710Z,-0.99
2016-12-11T00:39:37.673Z,-0.98
2016-12-11T00:40:37.322Z,-1.01
2016-12-11T00:41:37.582Z,-1.07
2016-12-11T00:42:37.239Z,-1.07
2016-12-11T00:43:37.194Z,-1.04
2016-12-11T00:44:37.454Z,-1.04
2016-12-11T00:45:37.411Z,-1.09
2016-12-11T00:46:37.066Z,-1.12
2016-12-11T00:47:37.021Z,-1.01
2016-12-11T00:48:36.981Z,-1.16
2016-12-11T00:49:36.939Z,-1.13
2016-12-11T00:50:36.894Z,-1.16
2016-12-11T00:51:36.849Z,-1.13
2016-12-11T00:52:37.115Z,-1.16
2016-12-11T00:53:36.764Z,-1.12
2016-12-11T00:54:36.426Z,-1.16
2016-12-11T00:55:36.675Z,-1.19
2016-12-11T00:56:36.636Z,-1.19
2016-12-11T00:57:36.893Z,-1.19
2016-12-11T00:58:36.557Z,-1.23
2016-12-11T00:59:36.808Z,-1.28
2016-12-11T01:00:36.462Z,-1.33
2016-12-11T01:01:36.717Z,-1.28
2016-12-11T01:02:36.378Z,-1.38
2016-12-11T01:03:36.632Z,-1.38
2016-12-11T01:04:36.630Z,-1.35
2016-12-11T01:05:35.945Z,-1.43
2016-12-11T01:06:36.205Z,-1.43
2016-12-11T01:07:36.464Z,-1.35
2016-12-11T01:08:36.424Z,-1.4
2016-12-11T01:09:35.776Z,-1.37
2016-12-11T01:10:36.335Z,-1.4
2016-12-11T01:11:36.293Z,-1.4
2016-12-11T01:12:36.253Z,-1.38
2016-12-11T01:13:35.900Z,-1.41
2016-12-11T01:14:36.163Z,-1.35
2016-12-11T01:15:35.822Z,-1.34
2016-12-11T01:16:36.076Z,-1.33
2016-12-11T01:17:36.032Z,-1.49
2016-12-11T01:18:35.990Z,-1.45
2016-12-11T01:19:35.943Z,-1.46
2016-12-11T01:20:35.906Z,-1.52
2016-12-11T01:21:35.861Z,-1.52
2016-12-11T01:22:36.021Z,-1.51
2016-12-11T01:23:35.472Z,-1.52
2016-12-11T01:24:35.728Z,-1.46
2016-12-11T01:25:35.387Z,-1.48
2016-12-11T01:26:35.342Z,-1.49
2016-12-11T01:27:35.607Z,-1.58
2016-12-11T01:28:35.562Z,-1.46
2016-12-11T01:29:35.212Z,-1.41
2016-12-11T01:30:35.474Z,-1.38
2016-12-11T01:31:35.429Z,-1.43
2016-12-11T01:32:35.395Z,-1.46
2016-12-11T01:33:35.345Z,-1.46
2016-12-11T01:34:35.302Z,-1.45
2016-12-11T01:35:34.955Z,-1.45
2016-12-11T01:36:35.220Z,-1.49
2016-12-11T01:37:35.172Z,-1.48
2016-12-11T01:38:34.824Z,-1.49
2016-12-11T01:39:35.082Z,-1.54
2016-12-11T01:40:34.742Z,-1.49
2016-12-11T01:41:34.697Z,-1.52
2016-12-11T01:42:34.951Z,-1.52
2016-12-11T01:43:34.313Z,-1.45
2016-12-11T01:44:34.572Z,-1.49
2016-12-11T01:45:34.523Z,-1.41
2016-12-11T01:46:34.788Z,-1.51
2016-12-11T01:47:34.434Z,-1.52
2016-12-11T01:48:34.405Z,-1.58
2016-12-11T01:49:34.650Z,-1.54
2016-12-11T01:50:34.610Z,-1.55
2016-12-11T01:51:34.566Z,-1.56
2016-12-11T01:52:34.520Z,-1.48
2016-12-11T01:53:34.472Z,-1.58
2016-12-11T01:54:34.134Z,-1.49
2016-12-11T01:55:34.097Z,-1.43
2016-12-11T01:56:34.350Z,-1.48
2016-12-11T01:57:33.700Z,-1.55
2016-12-11T01:58:34.263Z,-1.43
2016-12-11T01:59:34.227Z,-1.43
2016-12-11T02:00:34.174Z,-1.54
2016-12-11T02:01:34.128Z,-1.52
2016-12-11T02:02:34.091Z,-1.49
2016-12-11T02:03:34.043Z,-1.56
2016-12-11T02:04:34.003Z,-1.49
2016-12-11T02:05:33.660Z,-1.54
2016-12-11T02:06:33.613Z,-1.52
2016-12-11T02:07:33.962Z,-1.61
2016-12-11T02:08:33.830Z,-1.64
2016-12-11T02:09:33.181Z,-1.66
2016-12-11T02:10:33.746Z,-1.67
2016-12-11T02:11:33.399Z,-1.77
2016-12-11T02:12:33.351Z,-1.66
2016-12-11T02:13:33.613Z,-1.79
2016-12-11T02:14:33.577Z,-1.91
2016-12-11T02:15:33.225Z,-1.9
2016-12-11T02:16:33.180Z,-1.97
2016-12-11T02:17:33.442Z,-1.88
2016-12-11T02:18:33.396Z,-1.82
2016-12-11T02:19:33.057Z,-1.9
2016-12-11T02:20:33.309Z,-1.88
2016-12-11T02:21:33.266Z,-1.9
2016-12-11T02:22:33.222Z,-1.91
2016-12-11T02:23:32.876Z,-1.8
2016-12-11T02:24:32.836Z,-1.77
2016-12-11T02:25:33.092Z,-1.97
2016-12-11T02:26:32.743Z,-1.87
2016-12-11T02:27:32.704Z,-1.87
2016-12-11T02:28:32.962Z,-1.85
2016-12-11T02:29:32.921Z,-1.88
2016-12-11T02:30:32.874Z,-1.85
2016-12-11T02:31:32.841Z,-1.9
2016-12-11T02:32:32.786Z,-1.9
2016-12-11T02:33:32.747Z,-1.91
2016-12-11T02:34:32.702Z,-1.95
2016-12-11T02:35:32.355Z,-1.87
2016-12-11T02:36:32.323Z,-1.9
2016-12-11T02:37:32.269Z,-1.92
2016-12-11T02:38:32.535Z,-1.91
2016-12-11T02:39:32.185Z,-1.9
2016-12-11T02:40:32.139Z,-1.98
2016-12-11T02:41:32.400Z,-1.94
2016-12-11T02:42:32.054Z,-1.97
2016-12-11T02:43:32.078Z,-1.92
2016-12-11T02:44:32.268Z,-1.95
2016-12-11T02:45:32.228Z,-1.92
2016-12-11T02:46:32.186Z,-1.85
2016-12-11T02:47:32.248Z,-1.85
2016-12-11T02:48:32.095Z,-1.88
2016-12-11T02:49:31.748Z,-1.82
2016-12-11T02:50:31.710Z,-1.95
2016-12-11T02:51:31.965Z,-1.92
2016-12-11T02:52:31.923Z,-2.02
2016-12-11T02:53:31.877Z,-1.91
2016-12-11T02:54:31.835Z,-1.9
2016-12-11T02:55:31.485Z,-2
2016-12-11T02:56:31.441Z,-1.95
2016-12-11T02:57:31.700Z,-2
2016-12-11T02:58:31.661Z,-2.06
2016-12-11T02:59:31.612Z,-1.94
2016-12-11T03:00:31.575Z,-2.1
2016-12-11T03:01:31.527Z,-2.03
2016-12-11T03:02:31.486Z,-2.02
2016-12-11T03:03:31.440Z,-1.98
2016-12-11T03:04:31.408Z,-1.95
2016-12-11T03:05:31.052Z,-2.16
2016-12-11T03:06:31.309Z,-2.08
2016-12-11T03:07:30.967Z,-2.1
2016-12-11T03:08:31.222Z,-2.03
2016-12-11T03:09:30.877Z,-2.05
2016-12-11T03:10:30.529Z,-2.1
2016-12-11T03:11:30.792Z,-2.26
2016-12-11T03:12:30.749Z,-2.32
2016-12-11T03:13:31.006Z,-2.35
2016-12-11T03:14:30.966Z,-2.32
2016-12-11T03:15:30.915Z,-2.43
2016-12-11T03:16:30.873Z,-2.43
2016-12-11T03:17:30.529Z,-2.34
2016-12-11T03:18:30.789Z,-2.43
2016-12-11T03:19:30.442Z,-2.48
2016-12-11T03:20:30.703Z,-2.35
2016-12-11T03:21:30.655Z,-2.39
2016-12-11T03:22:30.320Z,-2.27
2016-12-11T03:23:29.963Z,-2.35
2016-12-11T03:24:30.221Z,-2.23
2016-12-11T03:25:30.485Z,-2.21
2016-12-11T03:26:30.134Z,-2.26
2016-12-11T03:27:30.397Z,-2.18
2016-12-11T03:28:30.354Z,-2.18
2016-12-11T03:29:30.317Z,-2.13
2016-12-11T03:30:29.964Z,-2.15
2016-12-11T03:31:30.220Z,-2.12
2016-12-11T03:32:30.178Z,-2.15
2016-12-11T03:33:30.147Z,-2.18
2016-12-11T03:34:31.102Z,-2.12
2016-12-11T03:35:30.048Z,-2.18
2016-12-11T03:36:30.010Z,-2.27
2016-12-11T03:37:29.482Z,-2.3
2016-12-11T03:38:29.309Z,-2.2
2016-12-11T03:39:29.872Z,-2.29
2016-12-11T03:40:29.830Z,-2.3
2016-12-11T03:41:29.186Z,-2.35
2016-12-11T03:42:29.442Z,-2.42
2016-12-11T03:43:29.396Z,-2.32
2016-12-11T03:44:29.351Z,-2.34
2016-12-11T03:45:29.308Z,-2.32
2016-12-11T03:46:29.263Z,-2.37
2016-12-11T03:47:29.223Z,-2.48
2016-12-11T03:48:29.175Z,-2.55
2016-12-11T03:49:29.132Z,-2.52
2016-12-11T03:50:29.400Z,-2.53
2016-12-11T03:51:29.350Z,-2.53
2016-12-11T03:52:29.009Z,-2.58
2016-12-11T03:53:28.957Z,-2.48
2016-12-11T03:54:28.916Z,-2.55
2016-12-11T03:55:29.174Z,-2.53
2016-12-11T03:56:29.132Z,-2.53
2016-12-11T03:57:29.083Z,-2.53
2016-12-11T03:58:29.040Z,-2.52
2016-12-11T03:59:29.001Z,-2.56
2016-12-11T04:00:28.954Z,-2.58
2016-12-11T04:01:28.914Z,-2.61
2016-12-11T04:02:28.563Z,-2.64
2016-12-11T04:03:28.822Z,-2.67
2016-12-11T04:04:28.475Z,-2.58
2016-12-11T04:05:28.742Z,-2.56
2016-12-11T04:06:28.088Z,-2.58
2016-12-11T04:07:28.651Z,-2.52
2016-12-11T04:08:28.607Z,-2.58
2016-12-11T04:09:28.562Z,-2.53
2016-12-11T04:10:28.517Z,-2.56
2016-12-11T04:11:28.181Z,-2.66
2016-12-11T04:12:28.437Z,-2.56
2016-12-11T04:13:28.383Z,-2.67
2016-12-11T04:14:28.347Z,-2.64
2016-12-11T04:15:28.298Z,-2.7
2016-12-11T04:16:28.256Z,-2.6
2016-12-11T04:17:27.910Z,-2.63
2016-12-11T04:18:27.866Z,-2.67
2016-12-11T04:19:28.129Z,-2.61
2016-12-11T04:20:28.078Z,-2.64
2016-12-11T04:21:27.737Z,-2.7
2016-12-11T04:22:27.988Z,-2.66
2016-12-11T04:23:27.946Z,-2.6
2016-12-11T04:24:27.911Z,-2.66
2016-12-11T04:25:27.562Z,-2.63
2016-12-11T04:26:27.816Z,-2.77
2016-12-11T04:27:27.499Z,-2.73
2016-12-11T04:28:27.730Z,-2.74
2016-12-11T04:29:27.083Z,-2.7
2016-12-11T04:30:27.641Z,-2.81
2016-12-11T04:31:27.297Z,-2.78
2016-12-11T04:32:27.555Z,-2.88
2016-12-11T04:33:27.516Z,-2.85
2016-12-11T04:34:27.162Z,-2.84
2016-12-11T04:35:27.118Z,-2.81
2016-12-11T04:36:27.078Z,-2.88
2016-12-11T04:37:27.035Z,-2.74
2016-12-11T04:38:27.292Z,-2.74
2016-12-11T04:39:27.250Z,-2.78
2016-12-11T04:40:27.207Z,-2.78
2016-12-11T04:41:27.163Z,-2.78
2016-12-11T04:42:26.813Z,-2.79
2016-12-11T04:43:26.776Z,-2.74
2016-12-11T04:44:27.056Z,-2.78
2016-12-11T04:45:26.986Z,-2.74
2016-12-11T04:46:26.940Z,-2.88
2016-12-11T04:47:26.592Z,-2.78
2016-12-11T04:48:26.851Z,-2.79
2016-12-11T04:49:26.808Z,-2.77
2016-12-11T04:50:26.167Z,-2.81
2016-12-11T04:51:26.723Z,-2.68
2016-12-11T04:52:26.375Z,-2.79
2016-12-11T04:53:26.331Z,-2.77
2016-12-11T04:54:26.288Z,-2.73
2016-12-11T04:55:25.946Z,-2.85
2016-12-11T04:56:26.506Z,-2.74
2016-12-11T04:57:26.157Z,-2.88
2016-12-11T04:58:26.422Z,-2.82
2016-12-11T04:59:26.368Z,-2.85
2016-12-11T05:00:26.026Z,-2.89
2016-12-11T05:01:26.301Z,-2.88
2016-12-11T05:02:25.936Z,-2.85
2016-12-11T05:03:26.195Z,-2.94
2016-12-11T05:04:26.155Z,-2.84
2016-12-11T05:05:25.813Z,-2.91
2016-12-11T05:06:26.645Z,-2.86
2016-12-11T05:07:26.028Z,-2.88
2016-12-11T05:08:25.977Z,-2.88
2016-12-11T05:09:25.633Z,-2.86
2016-12-11T05:10:25.887Z,-2.88
2016-12-11T05:11:25.849Z,-2.88
2016-12-11T05:12:25.798Z,-2.89
2016-12-11T05:13:25.761Z,-2.84
2016-12-11T05:14:25.714Z,-2.97
2016-12-11T05:15:25.366Z,-2.97
2016-12-11T05:16:25.626Z,-2.97
2016-12-11T05:17:25.279Z,-2.97
2016-12-11T05:18:25.543Z,-3
2016-12-11T05:19:25.493Z,-3.02
2016-12-11T05:20:25.460Z,-2.97
2016-12-11T05:21:24.831Z,-2.99
2016-12-11T05:22:24.758Z,-3
2016-12-11T05:23:25.320Z,-2.94
2016-12-11T05:24:24.972Z,-2.88
2016-12-11T05:25:24.928Z,-2.84
2016-12-11T05:26:24.884Z,-2.84
2016-12-11T05:27:25.175Z,-2.92
2016-12-11T05:28:24.822Z,-2.97
2016-12-11T05:29:24.754Z,-2.94
2016-12-11T05:30:24.419Z,-2.85
2016-12-11T05:31:24.968Z,-2.78
2016-12-11T05:32:24.624Z,-2.71
2016-12-11T05:33:24.576Z,-2.68
2016-12-11T05:34:24.532Z,-2.53
2016-12-11T05:35:24.788Z,-2.4
2016-12-11T05:36:24.742Z,-2.48
2016-12-11T05:37:24.700Z,-2.37
2016-12-11T05:38:24.658Z,-2.32
2016-12-11T05:39:24.342Z,-2.2
2016-12-11T05:40:24.572Z,-2.27
2016-12-11T05:41:24.219Z,-2.18
2016-12-11T05:42:24.486Z,-2.18
2016-12-11T05:43:24.135Z,-2.12
2016-12-11T05:44:24.392Z,-2.13
2016-12-11T05:45:24.353Z,-2.12
2016-12-11T05:46:24.306Z,-2.12
2016-12-11T05:47:24.263Z,-2.09
2016-12-11T05:48:23.914Z,-2.08
2016-12-11T05:49:24.172Z,-2.1
2016-12-11T05:50:24.130Z,-2.03
2016-12-11T05:51:24.089Z,-2.06
2016-12-11T05:52:23.742Z,-2.08
2016-12-11T05:53:23.697Z,-2.02
2016-12-11T05:54:23.652Z,-1.92
2016-12-11T05:55:23.911Z,-1.97
2016-12-11T05:56:23.869Z,-1.9
2016-12-11T05:57:23.518Z,-1.91
2016-12-11T05:58:23.782Z,-1.82
2016-12-11T05:59:23.736Z,-1.91
2016-12-11T06:00:23.689Z,-1.91
2016-12-11T06:01:23.494Z,-1.91
2016-12-11T06:02:23.307Z,-1.79
2016-12-11T06:03:23.561Z,-1.8
2016-12-11T06:04:23.516Z,-1.8
2016-12-11T06:05:23.475Z,-1.8
2016-12-11T06:06:23.435Z,-1.87
2016-12-11T06:07:23.391Z,-1.76
2016-12-11T06:08:23.342Z,-1.92
2016-12-11T06:09:23.009Z,-1.92
2016-12-11T06:10:23.252Z,-1.91
2016-12-11T06:11:23.210Z,-1.97
2016-12-11T06:12:22.870Z,-1.91
2016-12-11T06:13:23.125Z,-1.88
2016-12-11T06:14:23.080Z,-1.91
2016-12-11T06:15:23.041Z,-1.85
2016-12-11T06:16:22.993Z,-1.92
2016-12-11T06:17:22.646Z,-1.92
2016-12-11T06:18:22.987Z,-1.8
2016-12-11T06:19:22.862Z,-1.82
2016-12-11T06:20:22.817Z,-1.79
2016-12-11T06:21:22.502Z,-1.74
2016-12-11T06:22:22.431Z,-1.73
2016-12-11T06:23:22.686Z,-1.73
2016-12-11T06:24:22.652Z,-1.74
2016-12-11T06:25:22.601Z,-1.76
2016-12-11T06:26:21.957Z,-1.77
2016-12-11T06:27:22.513Z,-1.79
2016-12-11T06:28:22.170Z,-1.7
2016-12-11T06:29:22.432Z,-1.77
2016-12-11T06:30:22.385Z,-1.7
2016-12-11T06:31:22.360Z,-1.77
2016-12-11T06:32:22.294Z,-1.77
2016-12-11T06:33:21.958Z,-1.95
2016-12-11T06:34:21.969Z,-1.87
2016-12-11T06:35:21.562Z,-1.92
2016-12-11T06:36:22.122Z,-1.87
2016-12-11T06:37:21.774Z,-1.95
2016-12-11T06:38:22.037Z,-2.09
2016-12-11T06:39:21.991Z,-1.95
2016-12-11T06:40:21.955Z,-1.95
2016-12-11T06:41:21.905Z,-1.94
2016-12-11T06:42:21.861Z,-1.97
2016-12-11T06:43:21.814Z,-2.05
2016-12-11T06:44:21.777Z,-1.92
2016-12-11T06:45:21.731Z,-2.1
2016-12-11T06:46:21.397Z,-2.12
2016-12-11T06:47:21.341Z,-2.16
2016-12-11T06:48:21.298Z,-2.08
2016-12-11T06:49:21.254Z,-2.09
2016-12-11T06:50:21.515Z,-2.15
2016-12-11T06:51:21.474Z,-2.15
2016-12-11T06:52:21.424Z,-2.21
2016-12-11T06:53:21.389Z,-2.13
2016-12-11T06:54:21.037Z,-2.16
2016-12-11T06:55:21.000Z,-2.15
2016-12-11T06:56:21.254Z,-2.16
2016-12-11T06:57:21.208Z,-2.16
2016-12-11T06:58:21.168Z,-2.21
2016-12-11T06:59:21.122Z,-2.16
2016-12-11T07:00:20.773Z,-2.24
2016-12-11T07:01:21.031Z,-2.24
2016-12-11T07:02:20.990Z,-2.32
2016-12-11T07:03:20.641Z,-2.35
2016-12-11T07:04:20.900Z,-2.3
2016-12-11T07:05:20.558Z,-2.32
2016-12-11T07:06:20.811Z,-2.46
2016-12-11T07:07:20.766Z,-2.42
2016-12-11T07:08:20.728Z,-2.46
2016-12-11T07:09:20.382Z,-2.48
2016-12-11T07:10:20.640Z,-2.45
2016-12-11T07:11:20.590Z,-2.49
2016-12-11T07:12:20.547Z,-2.55
2016-12-11T07:13:20.504Z,-2.48
2016-12-11T07:14:20.465Z,-2.48
2016-12-11T07:15:20.116Z,-2.5
2016-12-11T07:16:20.383Z,-2.45
2016-12-11T07:17:20.331Z,-2.5
2016-12-11T07:18:20.285Z,-2.45
2016-12-11T07:19:19.943Z,-2.61
2016-12-11T07:20:20.208Z,-2.58
2016-12-11T07:21:19.858Z,-2.6
2016-12-11T07:22:20.113Z,-2.58
2016-12-11T07:23:19.767Z,-2.68
2016-12-11T07:24:20.024Z,-2.64
2016-12-11T07:25:19.982Z,-2.66
2016-12-11T07:26:19.637Z,-2.64
2016-12-11T07:27:19.288Z,-2.74
2016-12-11T07:28:19.855Z,-2.67
2016-12-11T07:29:19.809Z,-2.67
2016-12-11T07:30:19.762Z,-2.78
2016-12-11T07:31:19.720Z,-2.64
2016-12-11T07:32:19.678Z,-2.67
2016-12-11T07:33:19.653Z,-2.52
2016-12-11T07:34:19.286Z,-2.45
2016-12-11T07:35:19.541Z,-2.12
2016-12-11T07:36:19.195Z,-1.82
2016-12-11T07:37:19.457Z,-1.55
2016-12-11T07:38:19.410Z,-1.33
2016-12-11T07:39:19.068Z,-1.15
2016-12-11T07:40:19.322Z,-1.04
2016-12-11T07:41:19.279Z,-0.89
2016-12-11T07:42:18.939Z,-0.8
2016-12-11T07:43:19.189Z,-0.83
2016-12-11T07:44:19.151Z,-0.94
2016-12-11T07:45:18.807Z,-0.95
2016-12-11T07:46:19.060Z,-1.07
2016-12-11T07:47:19.022Z,-1.33
2016-12-11T07:48:18.975Z,-1.28
2016-12-11T07:49:18.626Z,-1.41
2016-12-11T07:50:18.283Z,-1.43
2016-12-11T07:51:18.976Z,-1.55
2016-12-11T07:52:18.800Z,-1.45
2016-12-11T07:53:18.760Z,-1.51
2016-12-11T07:54:18.125Z,-1.56
2016-12-11T07:55:18.674Z,-1.49
2016-12-11T07:56:18.328Z,-1.34
2016-12-11T07:57:18.584Z,-1.01
2016-12-11T07:58:18.537Z,-0.76
2016-12-11T07:59:18.507Z,-0.55
2016-12-11T08:00:18.152Z,-0.33
2016-12-11T08:01:18.134Z,0.15
2016-12-11T08:02:18.069Z,0.42
2016-12-11T08:03:18.024Z,0.53
2016-12-11T08:04:18.285Z,0.86
2016-12-11T08:05:18.239Z,1.22
2016-12-11T08:06:17.896Z,1.48
2016-12-11T08:07:18.152Z,1.62
2016-12-11T08:08:18.111Z,1.95
2016-12-11T08:09:18.076Z,2.31
2016-12-11T08:10:17.720Z,2.87
2016-12-11T08:11:17.682Z,3.32
2016-12-11T08:12:18.009Z,3.93
2016-12-11T08:13:17.625Z,4.26
2016-12-11T08:14:17.562Z,4.6
2016-12-11T08:15:17.514Z,4.99
2016-12-11T08:16:17.480Z,5.36
2016-12-11T08:17:17.429Z,5.74
2016-12-11T08:18:17.697Z,6.06
2016-12-11T08:19:17.350Z,6.34
2016-12-11T08:20:17.310Z,6.71
2016-12-11T08:21:17.573Z,6.94
2016-12-11T08:22:17.238Z,7.15
2016-12-11T08:23:17.494Z,7.34
2016-12-11T08:24:17.457Z,7.67
2016-12-11T08:25:17.115Z,8
2016-12-11T08:26:17.377Z,8.36
2016-12-11T08:27:17.339Z,8.66
2016-12-11T08:28:16.702Z,8.98
2016-12-11T08:29:17.361Z,9.32
2016-12-11T08:30:17.941Z,9.71
2016-12-11T08:31:17.195Z,10.05
2016-12-11T08:32:16.850Z,10.36
2016-12-11T08:33:17.114Z,10.52
2016-12-11T08:34:17.086Z,10.82
2016-12-11T08:35:17.039Z,10.82
2016-12-11T08:36:16.709Z,10.67
2016-12-11T08:37:16.672Z,9.69
2016-12-11T08:38:16.637Z,8.62
2016-12-11T08:39:16.602Z,7.57
2016-12-11T08:40:16.588Z,6.74
2016-12-11T08:41:16.832Z,6.06
2016-12-11T08:42:16.194Z,5.56
2016-12-11T08:43:17.851Z,4.94
2016-12-11T08:44:16.420Z,4.55
2016-12-11T08:45:16.698Z,4.36
2016-12-11T08:46:16.050Z,4.04
2016-12-11T08:47:16.322Z,3.72
2016-12-11T08:48:16.582Z,3.54
2016-12-11T08:49:16.544Z,3.23
2016-12-11T08:50:16.513Z,3.14
2016-12-11T08:51:16.470Z,3.08
2016-12-11T08:52:15.829Z,3.18
2016-12-11T08:53:16.396Z,3.98
2016-12-11T08:54:16.358Z,5.24
2016-12-11T08:55:16.323Z,6.52
2016-12-11T08:56:15.983Z,7.5
2016-12-11T08:57:15.962Z,8.61
2016-12-11T08:58:15.904Z,9.51
2016-12-11T08:59:15.869Z,10.27
2016-12-11T09:00:16.533Z,10.81
2016-12-11T09:01:15.795Z,10.78
2016-12-11T09:02:16.070Z,10.07
2016-12-11T09:03:15.725Z,9.1
2016-12-11T09:04:15.683Z,8.16
2016-12-11T09:05:15.963Z,7.23
2016-12-11T09:06:15.622Z,6.49
2016-12-11T09:07:15.590Z,5.81
2016-12-11T09:08:15.847Z,5.33
2016-12-11T09:09:15.814Z,4.8
2016-12-11T09:10:15.477Z,4.41
2016-12-11T09:11:15.738Z,4.32
2016-12-11T09:12:15.701Z,4.09
2016-12-11T09:13:15.665Z,3.86
2016-12-11T09:14:15.627Z,3.79
2016-12-11T09:15:15.293Z,3.73
2016-12-11T09:16:15.256Z,3.52
2016-12-11T09:17:15.516Z,3.45
2016-12-11T09:18:15.484Z,3.39
2016-12-11T09:19:14.839Z,3.29
2016-12-11T09:20:15.103Z,3.23
2016-12-11T09:21:15.066Z,3.14
2016-12-11T09:22:15.328Z,3.05
2016-12-11T09:23:15.288Z,2.9
2016-12-11T09:24:14.953Z,2.82
2016-12-11T09:25:15.210Z,2.81
2016-12-11T09:26:15.176Z,2.63
2016-12-11T09:27:14.834Z,2.56
2016-12-11T09:28:15.095Z,2.41
2016-12-11T09:29:15.061Z,2.38
2016-12-11T09:30:15.017Z,2.28
2016-12-11T09:31:14.981Z,2.18
2016-12-11T09:32:14.636Z,2.16
2016-12-11T09:33:14.909Z,2.06
2016-12-11T09:34:14.868Z,2
2016-12-11T09:35:14.821Z,1.91
2016-12-11T09:36:14.787Z,1.83
2016-12-11T09:37:14.139Z,1.86
2016-12-11T09:38:14.704Z,1.76
2016-12-11T09:39:14.671Z,1.63
2016-12-11T09:40:14.633Z,1.62
2016-12-11T09:41:14.583Z,1.58
2016-12-11T09:42:14.546Z,1.58
2016-12-11T09:43:14.506Z,1.44
2016-12-11T09:44:14.467Z,1.34
2016-12-11T09:45:14.125Z,1.44
2016-12-11T09:46:14.078Z,1.27
2016-12-11T09:47:14.347Z,1.3
2016-12-11T09:48:14.299Z,1.27
2016-12-11T09:49:13.959Z,1.26
2016-12-11T09:50:14.224Z,1.3
2016-12-11T09:51:14.179Z,1.33
2016-12-11T09:52:13.837Z,1.29
2016-12-11T09:53:13.492Z,1.16
2016-12-11T09:54:13.753Z,1.2
2016-12-11T09:55:13.748Z,1.18
2016-12-11T09:56:13.976Z,1.3
2016-12-11T09:57:13.631Z,1.15
2016-12-11T09:58:13.899Z,1.18
2016-12-11T09:59:13.249Z,1.23
2016-12-11T10:00:13.811Z,1.3
2016-12-11T10:01:13.772Z,1.2
2016-12-11T10:02:13.747Z,1.16
2016-12-11T10:03:13.689Z,1.15
2016-12-11T10:04:13.343Z,1.12
2016-12-11T10:05:13.607Z,1.16
2016-12-11T10:06:13.568Z,1.15
2016-12-11T10:07:12.915Z,1.23
2016-12-11T10:08:13.206Z,1.23
2016-12-11T10:09:13.139Z,1.18
2016-12-11T10:10:13.406Z,1.26
2016-12-11T10:11:13.358Z,1.2
2016-12-11T10:12:13.322Z,1.18
2016-12-11T10:13:13.276Z,1.32
2016-12-11T10:14:13.230Z,1.32
2016-12-11T10:15:13.193Z,1.3
2016-12-11T10:16:12.849Z,1.37
2016-12-11T10:17:13.105Z,1.41
2016-12-11T10:18:12.764Z,1.41
2016-12-11T10:19:13.025Z,1.52
2016-12-11T10:20:12.989Z,1.54
2016-12-11T10:21:12.939Z,1.51
2016-12-11T10:22:12.900Z,1.58
2016-12-11T10:23:12.559Z,1.69
2016-12-11T10:24:12.519Z,1.69
2016-12-11T10:25:12.780Z,1.81
2016-12-11T10:26:12.433Z,1.79
2016-12-11T10:27:12.696Z,1.83
2016-12-11T10:28:12.348Z,1.83
2016-12-11T10:29:12.618Z,1.84
2016-12-11T10:30:12.568Z,1.87
2016-12-11T10:31:12.530Z,1.86
2016-12-11T10:32:12.181Z,1.91
2016-12-11T10:33:13.048Z,1.91
2016-12-11T10:34:12.404Z,1.86
2016-12-11T10:35:12.059Z,1.84
2016-12-11T10:36:12.319Z,1.84
2016-12-11T10:37:11.973Z,1.87
2016-12-11T10:38:11.943Z,1.87
2016-12-11T10:39:12.199Z,1.86
2016-12-11T10:40:11.850Z,1.87
2016-12-11T10:41:12.116Z,1.83
2016-12-11T10:42:12.079Z,1.79
2016-12-11T10:43:11.882Z,1.69
2016-12-11T10:44:11.689Z,1.69
2016-12-11T10:45:11.663Z,1.72
2016-12-11T10:46:11.911Z,1.72
2016-12-11T10:47:11.861Z,1.72
2016-12-11T10:48:11.827Z,1.72
2016-12-11T10:49:11.482Z,1.79
2016-12-11T10:50:11.748Z,1.8
2016-12-11T10:51:11.696Z,1.86
2016-12-11T10:52:11.355Z,1.88
2016-12-11T10:53:11.616Z,1.87
2016-12-11T10:54:11.274Z,1.88
2016-12-11T10:55:11.239Z,1.84
2016-12-11T10:56:10.895Z,1.95
2016-12-11T10:57:11.464Z,1.98
2016-12-11T10:58:11.314Z,1.98
2016-12-11T10:59:11.381Z,1.93
2016-12-11T11:00:11.031Z,1.99
2016-12-11T11:01:11.290Z,1.9
2016-12-11T11:02:11.251Z,1.9
2016-12-11T11:03:10.603Z,1.84
2016-12-11T11:04:10.868Z,1.76
2016-12-11T11:05:10.521Z,1.69
2016-12-11T11:06:11.081Z,1.76
2016-12-11T11:07:10.742Z,1.69
2016-12-11T11:08:10.402Z,1.8
2016-12-11T11:09:10.358Z,1.79
2016-12-11T11:10:10.933Z,1.86
2016-12-11T11:11:10.573Z,1.84
2016-12-11T11:12:10.833Z,1.86
2016-12-11T11:13:10.489Z,1.81
2016-12-11T11:14:10.145Z,1.9
2016-12-11T11:15:10.413Z,1.9
2016-12-11T11:16:10.667Z,2.03
2016-12-11T11:17:10.631Z,2.14
2016-12-11T11:18:10.590Z,2.16
2016-12-11T11:19:10.543Z,2.31
2016-12-11T11:20:09.897Z,2.35
2016-12-11T11:21:10.460Z,2.52
2016-12-11T11:22:10.128Z,2.56
2016-12-11T11:23:10.079Z,2.56
2016-12-11T11:24:09.735Z,2.56
2016-12-11T11:25:10.326Z,2.56
2016-12-11T11:26:10.255Z,2.52
2016-12-11T11:27:09.607Z,2.61
2016-12-11T11:28:10.177Z,2.82
2016-12-11T11:29:10.134Z,3.03
2016-12-11T11:30:09.787Z,3.14
2016-12-11T11:31:10.048Z,3.2
2016-12-11T11:32:10.005Z,3.35
2016-12-11T11:33:09.669Z,3.4
2016-12-11T11:34:09.623Z,3.47
2016-12-11T11:35:09.582Z,3.43
2016-12-11T11:36:09.846Z,3.36
2016-12-11T11:37:09.805Z,3.17
2016-12-11T11:38:09.771Z,3.14
2016-12-11T11:39:09.729Z,3.13
2016-12-11T11:40:09.384Z,3
2016-12-11T11:41:09.340Z,2.92
2016-12-11T11:42:09.597Z,2.84
2016-12-11T11:43:09.261Z,2.89
2016-12-11T11:44:09.525Z,2.85
2016-12-11T11:45:09.477Z,2.95
2016-12-11T11:46:09.440Z,2.78
2016-12-11T11:47:09.394Z,2.81
2016-12-11T11:48:09.052Z,2.85
2016-12-11T11:49:09.010Z,2.89
2016-12-11T11:50:08.974Z,2.81
2016-12-11T11:51:09.239Z,2.96
2016-12-11T11:52:09.185Z,2.9
2016-12-11T11:53:09.146Z,2.92
2016-12-11T11:54:09.108Z,2.9
2016-12-11T11:55:09.072Z,2.9
2016-12-11T11:56:08.424Z,2.87
2016-12-11T11:57:08.982Z,2.82
2016-12-11T11:58:08.945Z,2.87
2016-12-11T11:59:08.599Z,2.84
2016-12-11T12:00:08.266Z,2.96
2016-12-11T12:01:08.520Z,2.87
2016-12-11T12:02:08.173Z,2.85
2016-12-11T12:03:08.741Z,2.79
2016-12-11T12:04:08.397Z,2.84
2016-12-11T12:05:08.657Z,2.75
2016-12-11T12:06:08.655Z,2.84
2016-12-11T12:07:08.276Z,2.84
2016-12-11T12:08:08.534Z,2.87
2016-12-11T12:09:08.497Z,2.85
2016-12-11T12:10:08.457Z,2.85
2016-12-11T12:11:08.112Z,2.89
2016-12-11T12:12:08.071Z,2.78
2016-12-11T12:13:08.334Z,2.82
2016-12-11T12:14:07.989Z,2.84
2016-12-11T12:15:08.252Z,2.82
2016-12-11T12:16:08.277Z,2.87
2016-12-11T12:17:08.170Z,2.82
2016-12-11T12:18:07.821Z,2.93
2016-12-11T12:19:08.080Z,2.84
2016-12-11T12:20:08.043Z,2.77
2016-12-11T12:21:07.697Z,2.85
2016-12-11T12:22:07.965Z,2.89
2016-12-11T12:23:07.918Z,2.92
2016-12-11T12:24:07.576Z,2.93
2016-12-11T12:25:07.843Z,2.81
2016-12-11T12:26:07.793Z,2.89
2016-12-11T12:27:07.761Z,2.87
2016-12-11T12:28:07.419Z,2.95
2016-12-11T12:29:07.679Z,2.87
2016-12-11T12:30:07.344Z,2.89
2016-12-11T12:31:07.599Z,2.78
2016-12-11T12:32:07.254Z,2.77
2016-12-11T12:33:07.513Z,2.81
2016-12-11T12:34:07.473Z,2.82
2016-12-11T12:35:07.428Z,2.85
2016-12-11T12:36:07.387Z,2.85
2016-12-11T12:37:07.345Z,2.87
2016-12-11T12:38:07.314Z,2.9
2016-12-11T12:39:07.261Z,2.92
2016-12-11T12:40:06.929Z,2.79
2016-12-11T12:41:06.577Z,2.81
2016-12-11T12:42:07.142Z,2.79
2016-12-11T12:43:07.105Z,2.77
2016-12-11T12:44:07.058Z,2.84
2016-12-11T12:45:06.417Z,2.79
2016-12-11T12:46:06.984Z,2.82
2016-12-11T12:47:06.635Z,2.89
2016-12-11T12:48:07.149Z,2.9
2016-12-11T12:49:06.552Z,2.85
2016-12-11T12:50:06.825Z,2.85
2016-12-11T12:51:06.475Z,2.82
2016-12-11T12:52:06.434Z,2.85
2016-12-11T12:53:06.089Z,2.85
2016-12-11T12:54:06.345Z,2.84
2016-12-11T12:55:06.611Z,2.78
2016-12-11T12:56:06.269Z,2.75
2016-12-11T12:57:06.527Z,2.81
2016-12-11T12:58:06.484Z,2.9
2016-12-11T12:59:06.142Z,2.89
2016-12-11T13:00:06.408Z,2.89
2016-12-11T13:01:06.371Z,2.84
2016-12-11T13:02:06.323Z,2.87
2016-12-11T13:03:06.283Z,2.78
2016-12-11T13:04:06.257Z,2.89
2016-12-11T13:05:05.896Z,2.9